Time;durP1;ratioP1;P1;durP2;ratioP2;P2;SDS_P1;SDS_P2;PMS_P1;PMS_P2;Temp;Humidity;BMP_temperature;BMP_pressure;BME280_temperature;BME280_humidity;BME280_pressure;Samples;Min_cycle;Max_cycle;Signal;HPM_P1;HPM_P2
2021/12/27 00:01:17;;;;;;;57.77;36.97;;;;;;;1.76;100.00;100191.38;4997191;28;20110;-59
2021/12/27 00:03:51;;;;;;;60.33;36.93;;;;;;;1.77;100.00;100192.28;5000297;28;20084;-59
2021/12/27 00:06:17;;;;;;;58.87;37.17;;;;;;;1.78;100.00;100187.25;5004451;28;20125;-59
2021/12/27 00:08:43;;;;;;;58.70;36.60;;;;;;;1.80;100.00;100187.31;5002764;28;20104;-58
2021/12/27 00:11:10;;;;;;;56.67;37.20;;;;;;;1.81;100.00;100189.13;4998096;28;20032;-59
2021/12/27 00:13:36;;;;;;;59.10;36.83;;;;;;;1.80;100.00;100189.88;4998789;28;20030;-59
2021/12/27 00:16:02;;;;;;;55.53;36.60;;;;;;;1.80;100.00;100189.88;4998721;28;20026;-59
2021/12/27 00:18:28;;;;;;;56.40;35.53;;;;;;;1.80;100.00;100193.34;4997623;28;20018;-60
2021/12/27 00:20:53;;;;;;;57.83;37.60;;;;;;;1.81;100.00;100189.13;5001089;28;20052;-58
2021/12/27 00:23:18;;;;;;;55.27;35.63;;;;;;;1.81;100.00;100178.88;4997969;28;20179;-59
2021/12/27 00:25:44;;;;;;;54.77;36.20;;;;;;;1.83;100.00;100184.09;5003804;28;20037;-58
2021/12/27 00:28:09;;;;;;;59.17;37.03;;;;;;;1.83;100.00;100174.75;4994425;28;20026;-59
2021/12/27 00:30:35;;;;;;;56.07;36.43;;;;;;;1.84;100.00;100173.94;5001701;28;20049;-59
2021/12/27 00:33:00;;;;;;;59.83;37.40;;;;;;;1.83;100.00;100171.31;4997446;28;20033;-59
2021/12/27 00:35:26;;;;;;;57.90;37.23;;;;;;;1.84;100.00;100173.94;5002039;28;20131;-59
2021/12/27 00:37:51;;;;;;;56.70;37.90;;;;;;;1.84;100.00;100162.84;5001320;28;20363;-60
2021/12/27 00:40:17;;;;;;;57.87;38.10;;;;;;;1.86;100.00;100156.13;5022330;28;20368;-59
2021/12/27 00:42:43;;;;;;;56.37;37.77;;;;;;;1.85;100.00;100160.41;4999202;28;20029;-57
2021/12/27 00:45:09;;;;;;;57.67;36.27;;;;;;;1.88;100.00;100155.44;4992906;28;20030;-59
2021/12/27 00:47:35;;;;;;;61.27;37.33;;;;;;;1.87;100.00;100157.91;5002766;28;20122;-60
2021/12/27 00:50:00;;;;;;;59.67;37.97;;;;;;;1.89;100.00;100156.34;4997200;28;20438;-59
2021/12/27 00:52:26;;;;;;;59.77;38.60;;;;;;;1.88;100.00;100147.78;5001341;28;20022;-59
2021/12/27 00:54:51;;;;;;;57.07;38.60;;;;;;;1.89;100.00;100141.88;5004825;28;20049;-60
2021/12/27 00:57:17;;;;;;;57.63;37.53;;;;;;;1.89;100.00;100136.75;4995818;28;20026;-60
2021/12/27 00:59:42;;;;;;;58.30;37.13;;;;;;;1.90;100.00;100141.09;5004385;28;20258;-59
2021/12/27 01:02:07;;;;;;;55.37;35.97;;;;;;;1.90;100.00;100138.53;4994344;28;20030;-58
2021/12/27 01:04:33;;;;;;;53.23;36.97;;;;;;;1.91;100.00;100140.28;4998002;28;20050;-59
2021/12/27 01:06:58;;;;;;;61.07;37.97;;;;;;;1.92;100.00;100138.63;5002306;28;20033;-60
2021/12/27 01:13:04;;;;;;;55.60;35.07;;;;;;;1.94;100.00;100133.59;5040715;28;20036;-59
2021/12/27 01:17:45;;;;;;;56.27;35.97;;;;;;;1.93;100.00;100127.56;5045624;28;20068;-58
2021/12/27 01:20:14;;;;;;;58.53;37.77;;;;;;;1.95;100.00;100135.31;5047795;28;20040;-58
2021/12/27 01:22:39;;;;;;;59.00;38.10;;;;;;;1.95;100.00;100133.66;5049126;28;20098;-59
2021/12/27 01:25:09;;;;;;;57.53;38.60;;;;;;;1.95;100.00;100128.56;5043400;28;20037;-60
2021/12/27 01:27:34;;;;;;;54.70;36.80;;;;;;;1.98;100.00;100135.53;5049490;28;20037;-60
2021/12/27 01:30:00;;;;;;;64.53;38.33;;;;;;;1.99;100.00;100127.03;5049402;28;20147;-60
2021/12/27 01:32:31;;;;;;;59.60;37.03;;;;;;;1.99;100.00;100127.03;5032232;28;20064;-58
2021/12/27 01:34:56;;;;;;;61.85;37.33;;;;;;;1.99;100.00;100130.50;5047726;28;20033;-59
2021/12/27 01:37:22;;;;;;;62.07;37.13;;;;;;;2.01;100.00;100122.91;5049339;28;20056;-59
2021/12/27 01:39:47;;;;;;;62.20;37.63;;;;;;;2.00;100.00;100122.00;5048669;28;20037;-59
2021/12/27 01:42:13;;;;;;;61.37;37.77;;;;;;;2.02;100.00;100111.88;5048778;28;20041;-59
2021/12/27 01:44:39;;;;;;;61.13;38.27;;;;;;;2.01;100.00;100115.25;5032342;28;20560;-60
2021/12/27 01:47:06;;;;;;;60.67;38.63;;;;;;;2.03;100.00;100123.88;5019960;28;20037;-58
2021/12/27 01:49:32;;;;;;;62.33;38.07;;;;;;;2.04;100.00;100125.63;4999397;28;20038;-58
2021/12/27 01:51:57;;;;;;;57.23;37.33;;;;;;;2.05;100.00;100117.19;5005470;28;20088;-59
2021/12/27 01:54:22;;;;;;;66.63;38.27;;;;;;;2.04;100.00;100111.16;4999362;28;20077;-60
2021/12/27 01:56:51;;;;;;;60.33;38.30;;;;;;;2.05;100.00;100109.50;5008290;28;20445;-58
2021/12/27 01:59:16;;;;;;;60.13;37.77;;;;;;;2.05;100.00;100114.63;5000045;28;20092;-58
2021/12/27 02:01:41;;;;;;;65.03;38.00;;;;;;;2.07;100.00;100117.25;5002968;28;20030;-57
2021/12/27 02:04:07;;;;;;;58.27;36.67;;;;;;;2.06;100.00;100116.38;5008088;28;20065;-56
2021/12/27 02:06:32;;;;;;;63.17;38.27;;;;;;;2.08;100.00;100112.22;4999053;28;20390;-57
2021/12/27 02:08:57;;;;;;;59.53;37.63;;;;;;;2.08;100.00;100117.34;5002192;28;20097;-56
2021/12/27 02:11:23;;;;;;;57.90;37.50;;;;;;;2.09;100.00;100113.97;5002353;28;20346;-55
2021/12/27 02:13:49;;;;;;;61.47;39.47;;;;;;;2.10;100.00;100107.19;5006413;28;20037;-57
2021/12/27 02:16:18;;;;;;;59.37;38.17;;;;;;;2.10;100.00;100109.75;4998135;28;20025;-56
2021/12/27 02:18:44;;;;;;;58.20;38.20;;;;;;;2.11;100.00;100102.16;5003595;28;20038;-57
2021/12/27 02:21:11;;;;;;;63.03;38.47;;;;;;;2.11;100.00;100107.28;5002486;28;20026;-56
2021/12/27 02:23:39;;;;;;;61.93;38.43;;;;;;;2.13;100.00;100107.34;5000291;28;20033;-56
2021/12/27 02:26:04;;;;;;;63.73;38.73;;;;;;;2.13;100.00;100100.56;5004622;28;20038;-57
2021/12/27 02:28:30;;;;;;;64.23;38.30;;;;;;;2.14;100.00;100101.47;4998694;28;20022;-56
2021/12/27 02:30:55;;;;;;;66.63;38.93;;;;;;;2.15;100.00;100104.09;4999626;28;20068;-57
2021/12/27 02:33:21;;;;;;;63.87;38.60;;;;;;;2.17;100.00;100099.06;4997776;28;20030;-57
2021/12/27 02:35:50;;;;;;;63.30;38.07;;;;;;;2.18;100.00;100097.41;5004377;28;20301;-56
2021/12/27 02:38:20;;;;;;;67.47;39.13;;;;;;;2.19;100.00;100106.81;4995292;28;20036;-57
2021/12/27 02:40:46;;;;;;;63.85;38.13;;;;;;;2.19;100.00;100099.13;5005923;28;20049;-57
2021/12/27 02:43:14;;;;;;;67.87;39.60;;;;;;;2.20;100.00;100100.88;4998643;28;20088;-57
2021/12/27 02:45:46;;;;;;;64.07;39.17;;;;;;;2.20;100.00;100103.44;5001969;28;20574;-59
2021/12/27 02:48:12;;;;;;;59.93;37.90;;;;;;;2.21;100.00;100106.09;5008530;28;20087;-60
2021/12/27 02:50:39;;;;;;;64.30;37.90;;;;;;;2.23;100.00;100098.53;4999123;28;20026;-60
2021/12/27 02:53:06;;;;;;;65.23;39.67;;;;;;;2.24;100.00;100107.94;5000068;28;20034;-60
2021/12/27 02:55:32;;;;;;;64.00;38.37;;;;;;;2.26;100.00;100101.22;4997442;28;20026;-58
2021/12/27 02:57:58;;;;;;;61.17;36.97;;;;;;;2.25;100.00;100090.13;5003170;28;20045;-57
2021/12/27 03:00:39;;;;;;;67.93;39.87;;;;;;;2.26;100.00;100093.56;4998977;28;20026;-57
2021/12/27 03:03:05;;;;;;;62.17;38.15;;;;;;;2.27;100.00;100085.09;5002087;28;20026;-57
2021/12/27 03:05:31;;;;;;;60.43;37.83;;;;;;;2.27;100.00;100088.53;4996317;28;20383;-57
2021/12/27 03:07:57;;;;;;;65.10;38.60;;;;;;;2.28;100.00;100084.31;4999856;28;20034;-57
2021/12/27 03:10:30;;;;;;;65.27;38.73;;;;;;;2.28;100.00;100085.16;5001950;28;20044;-57
2021/12/27 03:12:57;;;;;;;65.37;38.80;;;;;;;2.30;100.00;100082.72;4996928;28;20034;-57
2021/12/27 03:15:30;;;;;;;68.00;39.97;;;;;;;2.31;100.00;100074.22;5006310;28;20038;-57
2021/12/27 03:17:55;;;;;;;64.63;38.53;;;;;;;2.32;100.00;100065.75;4994429;28;20042;-56
2021/12/27 03:20:24;;;;;;;64.07;39.33;;;;;;;2.33;100.00;100061.53;5004528;28;20712;-57
2021/12/27 03:22:50;;;;;;;65.93;39.17;;;;;;;2.34;100.00;100066.72;5001226;28;20370;-56
2021/12/27 03:25:18;;;;;;;68.20;40.80;;;;;;;2.35;100.00;100067.59;5002364;28;20035;-60
2021/12/27 03:27:44;;;;;;;62.57;38.40;;;;;;;2.35;100.00;100071.03;5001274;28;20069;-58
2021/12/27 03:30:14;;;;;;;67.20;39.53;;;;;;;2.37;100.00;100079.69;4998965;28;20096;-60
2021/12/27 03:32:39;;;;;;;69.13;39.17;;;;;;;2.38;100.00;100072.88;5001894;28;20483;-59
2021/12/27 03:35:10;;;;;;;68.90;39.73;;;;;;;2.40;100.00;100069.59;4996390;28;20113;-59
2021/12/27 03:37:37;;;;;;;;;;;;;;;2.40;100.00;100064.50;5006712;28;20022;-60
2021/12/27 03:40:04;;;;;;;67.33;38.80;;;;;;;2.42;100.00;100066.25;4999545;28;19965;-60
2021/12/27 03:42:30;;;;;;;73.77;39.43;;;;;;;2.42;100.00;100067.13;5003336;28;20479;-60
2021/12/27 03:44:55;;;;;;;64.97;39.77;;;;;;;2.42;100.00;100062.00;4999193;28;20100;-59
2021/12/27 03:47:20;;;;;;;70.03;42.17;;;;;;;2.44;100.00;100064.66;5000832;28;20534;-59
2021/12/27 03:49:46;;;;;;;67.90;39.70;;;;;;;2.45;100.00;100066.38;5001444;28;20064;-60
2021/12/27 03:52:11;;;;;;;71.37;40.50;;;;;;;2.46;100.00;100055.38;4999060;28;20053;-60
2021/12/27 03:54:36;;;;;;;75.23;42.23;;;;;;;2.47;100.00;100059.69;5000781;28;21233;-56
2021/12/27 03:57:02;;;;;;;68.30;38.77;;;;;;;2.50;100.00;100052.19;5000110;28;20064;-56
2021/12/27 03:59:53;;;;;;;68.57;39.17;;;;;;;2.50;100.00;100047.94;5003895;28;20034;-58
2021/12/27 04:02:18;;;;;;;68.55;39.22;;;;;;;2.52;100.00;100042.91;4994226;28;20057;-57
2021/12/27 04:04:44;;;;;;;67.87;39.23;;;;;;;2.52;100.00;100041.22;5003599;28;20084;-56
2021/12/27 04:07:10;;;;;;;67.83;39.93;;;;;;;2.54;100.00;100036.19;5002951;28;20022;-56
2021/12/27 04:09:36;;;;;;;66.50;39.47;;;;;;;2.55;100.00;100032.84;5003251;28;20037;-57
2021/12/27 04:12:04;;;;;;;74.73;40.77;;;;;;;2.55;100.00;100030.28;4997121;28;20113;-56
2021/12/27 04:14:29;;;;;;;70.20;40.83;;;;;;;2.56;100.00;100024.34;4998548;28;20045;-56
2021/12/27 04:16:55;;;;;;;68.70;41.20;;;;;;;2.57;100.00;100031.25;4998639;28;20034;-57
2021/12/27 04:19:21;;;;;;;71.47;40.20;;;;;;;2.56;100.00;100024.34;5002588;28;20513;-58
2021/12/27 04:21:46;;;;;;;65.73;39.97;;;;;;;2.59;100.00;100016.84;4999005;28;20061;-57
2021/12/27 04:24:12;;;;;;;69.93;41.60;;;;;;;2.61;100.00;100016.91;4995029;28;20402;-56
2021/12/27 04:26:37;;;;;;;75.57;43.27;;;;;;;2.63;100.00;100015.31;5001769;28;20022;-59
2021/12/27 04:29:04;;;;;;;86.77;46.17;;;;;;;2.63;100.00;100016.19;4997867;28;20102;-60
2021/12/27 04:31:29;;;;;;;71.77;41.37;;;;;;;2.64;100.00;100017.09;5001246;28;20022;-59
2021/12/27 04:33:54;;;;;;;76.50;41.63;;;;;;;2.65;100.00;100011.16;4995455;28;20096;-59
2021/12/27 04:36:20;;;;;;;68.53;40.73;;;;;;;2.64;100.00;100007.72;5004709;28;20032;-60
2021/12/27 04:38:45;;;;;;;71.10;40.67;;;;;;;2.68;100.00;100007.88;5000549;28;20236;-59
2021/12/27 04:41:14;;;;;;;69.30;42.70;;;;;;;2.69;100.00;100009.63;4990880;28;20014;-60
2021/12/27 04:43:39;;;;;;;67.50;40.83;;;;;;;2.70;100.00;99996.06;5001766;28;20026;-59
2021/12/27 04:46:05;;;;;;;71.30;41.20;;;;;;;2.71;100.00;100002.91;4998728;28;20105;-60
2021/12/27 04:48:30;;;;;;;66.73;41.60;;;;;;;2.72;100.00;99994.44;5000242;28;20497;-60
2021/12/27 04:50:56;;;;;;;69.37;40.20;;;;;;;2.73;100.00;100001.31;4995665;28;20080;-59
2021/12/27 04:53:21;;;;;;;66.70;39.00;;;;;;;2.75;100.00;100009.97;5003221;28;20030;-60
2021/12/27 04:55:47;;;;;;;62.43;39.20;;;;;;;2.76;100.00;100004.03;4996166;28;20034;-58
2021/12/27 04:58:16;;;;;;;66.67;38.73;;;;;;;2.77;100.00;100003.22;5008007;28;20255;-57
2021/12/27 05:00:42;;;;;;;66.27;39.77;;;;;;;2.80;100.00;99994.81;5001522;28;20033;-57
2021/12/27 05:03:08;;;;;;;71.27;40.80;;;;;;;2.81;100.00;99994.00;5003514;28;20048;-60
2021/12/27 05:05:33;;;;;;;70.37;39.90;;;;;;;2.82;100.00;99991.56;5004802;28;20042;-59
2021/12/27 05:08:00;;;;;;;69.27;39.67;;;;;;;2.84;100.00;99995.03;5003026;28;20026;-60
2021/12/27 05:10:26;;;;;;;65.17;38.70;;;;;;;2.85;100.00;99994.25;5006114;28;20052;-59
2021/12/27 05:12:52;;;;;;;65.77;38.80;;;;;;;2.85;100.00;99993.38;5001213;28;20033;-59
2021/12/27 05:15:17;;;;;;;63.93;38.00;;;;;;;2.86;100.00;99995.16;5006829;28;20419;-60
2021/12/27 05:17:43;;;;;;;66.27;38.90;;;;;;;2.86;100.00;99990.88;5001386;28;20033;-59
2021/12/27 05:20:09;;;;;;;65.90;38.47;;;;;;;2.88;100.00;99990.94;5006326;28;20041;-60
2021/12/27 05:22:36;;;;;;;65.60;38.97;;;;;;;2.88;100.00;99991.84;5000269;28;20421;-60
2021/12/27 05:25:03;;;;;;;65.97;38.33;;;;;;;2.91;100.00;99992.81;5002136;28;20038;-58
2021/12/27 05:27:28;;;;;;;62.30;37.53;;;;;;;2.91;100.00;99995.34;5007770;28;20037;-58
2021/12/27 05:29:53;;;;;;;66.00;38.80;;;;;;;2.93;100.00;99996.31;5002493;28;20471;-57
2021/12/27 05:32:19;;;;;;;66.83;39.30;;;;;;;2.97;100.00;99987.97;5000953;28;20026;-58
2021/12/27 05:34:44;;;;;;;66.77;40.03;;;;;;;2.98;100.00;99992.31;5001109;28;20105;-58
2021/12/27 05:37:09;;;;;;;62.00;37.90;;;;;;;3.00;100.00;99983.03;5004141;28;20034;-59
2021/12/27 05:39:36;;;;;;;61.60;37.67;;;;;;;3.02;100.00;99983.97;5000820;28;20030;-58
2021/12/27 05:42:01;;;;;;;65.43;40.23;;;;;;;3.03;100.00;99975.47;5005891;28;20022;-58
2021/12/27 05:44:27;;;;;;;63.20;37.27;;;;;;;3.03;100.00;99975.47;5001498;28;20528;-57
2021/12/27 05:46:54;;;;;;;62.60;38.63;;;;;;;3.05;100.00;99973.00;5004217;28;20038;-58
2021/12/27 05:49:20;;;;;;;63.97;39.57;;;;;;;3.06;100.00;99978.19;5001393;28;20029;-56
2021/12/27 05:51:45;;;;;;;62.90;37.63;;;;;;;3.09;100.00;99980.03;5002850;28;20049;-57
2021/12/27 05:54:12;;;;;;;61.70;36.60;;;;;;;3.14;100.00;99982.81;4998815;28;20018;-58
2021/12/27 05:56:38;;;;;;;56.57;36.50;;;;;;;3.13;100.00;99974.22;5000294;28;20034;-59
2021/12/27 05:59:03;;;;;;;61.80;38.80;;;;;;;3.14;100.00;99975.13;5010459;28;20037;-58
2021/12/27 06:01:29;;;;;;;58.47;37.17;;;;;;;3.16;100.00;99982.09;4998010;28;20030;-58
2021/12/27 06:03:57;;;;;;;61.97;36.57;;;;;;;3.18;100.00;99987.28;5002073;28;20084;-55
2021/12/27 06:06:23;;;;;;;54.63;36.17;;;;;;;3.19;100.00;99994.13;4995924;28;20080;-57
2021/12/27 06:08:49;;;;;;;60.93;38.87;;;;;;;3.21;100.00;99984.84;5002199;28;20646;-59
2021/12/27 06:11:14;;;;;;;57.83;36.33;;;;;;;3.21;100.00;99985.75;5000573;28;20029;-58
2021/12/27 06:13:40;;;;;;;57.37;35.97;;;;;;;3.24;100.00;99974.75;5005549;28;20605;-58
2021/12/27 06:16:05;;;;;;;58.97;36.40;;;;;;;3.26;100.00;99977.41;4998331;28;20505;-57
2021/12/27 06:18:30;;;;;;;57.57;36.97;;;;;;;3.26;100.00;99975.72;5000988;28;20383;-59
2021/12/27 06:20:56;;;;;;;56.73;36.77;;;;;;;3.28;100.00;99976.66;5003614;28;20018;-58
2021/12/27 06:23:21;;;;;;;60.97;36.80;;;;;;;3.29;100.00;99980.97;4998864;28;20026;-58
2021/12/27 06:25:47;;;;;;;57.30;37.53;;;;;;;3.30;100.00;99980.19;5003168;28;20037;-58
2021/12/27 06:28:12;;;;;;;58.30;36.63;;;;;;;3.29;100.00;99973.28;4999905;28;20015;-58
2021/12/27 06:30:37;;;;;;;61.60;37.40;;;;;;;3.30;100.00;99980.19;5004524;28;20033;-57
2021/12/27 06:33:06;;;;;;;58.17;36.43;;;;;;;3.30;100.00;99980.19;4997080;28;20056;-59
2021/12/27 06:35:32;;;;;;;56.27;35.50;;;;;;;3.31;100.00;99974.25;5002037;28;20029;-57
2021/12/27 06:37:57;;;;;;;61.07;37.10;;;;;;;3.33;100.00;99969.19;5007684;28;20026;-57
2021/12/27 06:40:22;;;;;;;53.50;35.77;;;;;;;3.33;100.00;99971.75;5002823;28;20030;-58
2021/12/27 06:42:48;;;;;;;55.43;35.77;;;;;;;3.35;100.00;99977.81;4996332;28;20712;-58
2021/12/27 06:45:13;;;;;;;57.70;34.30;;;;;;;3.34;100.00;99971.84;5002536;28;20105;-58
2021/12/27 06:47:39;;;;;;;53.33;34.70;;;;;;;3.34;100.00;99971.84;5001022;28;20482;-57
2021/12/27 06:50:06;;;;;;;54.73;34.27;;;;;;;3.36;100.00;99965.09;5001511;28;20033;-58
2021/12/27 06:52:31;;;;;;;51.07;34.33;;;;;;;3.38;100.00;99972.88;4997416;28;20017;-57
2021/12/27 06:54:57;;;;;;;55.30;34.33;;;;;;;3.38;100.00;99956.63;4999069;28;20041;-58
2021/12/27 06:57:22;;;;;;;56.97;35.23;;;;;;;3.40;100.00;99950.75;5002230;28;20033;-57
2021/12/27 06:59:48;;;;;;;57.57;35.83;;;;;;;3.41;100.00;99951.63;5001467;28;20481;-57
2021/12/27 07:02:14;;;;;;;56.57;34.73;;;;;;;3.43;100.00;99950.03;5001137;28;20168;-58
2021/12/27 07:04:39;;;;;;;56.30;34.87;;;;;;;3.44;100.00;99938.97;5000656;28;20089;-57
2021/12/27 07:07:04;;;;;;;56.60;34.80;;;;;;;3.45;100.00;99938.16;5005632;28;20033;-58
2021/12/27 07:09:30;;;;;;;56.50;33.67;;;;;;;3.45;100.00;99938.16;5004823;28;20045;-59
2021/12/27 07:11:56;;;;;;;54.17;32.83;;;;;;;3.46;100.00;99934.78;5003445;28;20030;-59
2021/12/27 07:14:21;;;;;;;55.90;34.13;;;;;;;3.46;100.00;99933.13;5000299;28;20053;-59
2021/12/27 07:16:47;;;;;;;51.13;33.70;;;;;;;3.47;100.00;99926.31;4998926;28;20435;-57
2021/12/27 07:19:12;;;;;;;52.27;32.27;;;;;;;3.46;100.00;99925.44;5002517;28;20407;-58
2021/12/27 07:21:37;;;;;;;51.87;32.47;;;;;;;3.48;100.00;99933.19;4998413;28;20022;-59
2021/12/27 07:24:03;;;;;;;49.70;32.53;;;;;;;3.47;100.00;99942.53;4999151;28;20042;-57
2021/12/27 07:26:28;;;;;;;54.27;33.43;;;;;;;3.46;100.00;99929.66;4997382;28;20356;-58
2021/12/27 07:28:54;;;;;;;54.20;32.63;;;;;;;3.47;100.00;99932.28;5002657;28;20030;-57
2021/12/27 07:31:19;;;;;;;54.83;33.23;;;;;;;3.48;100.00;99933.19;4995763;28;20835;-57
2021/12/27 07:33:44;;;;;;;57.10;34.40;;;;;;;3.46;100.00;99929.66;5000323;28;20030;-58
2021/12/27 07:36:11;;;;;;;51.30;31.27;;;;;;;3.46;100.00;99932.22;4996745;28;20363;-58
2021/12/27 07:38:38;;;;;;;50.80;32.50;;;;;;;3.44;100.00;99926.16;4999762;28;20033;-58
2021/12/27 07:41:04;;;;;;;47.60;32.00;;;;;;;3.43;100.00;99924.41;4996575;28;20430;-58
2021/12/27 07:43:29;;;;;;;49.87;31.80;;;;;;;3.39;100.00;99937.88;5001006;28;20021;-58
2021/12/27 07:45:55;;;;;;;49.80;30.60;;;;;;;3.36;100.00;99934.34;4996849;28;20026;-57
2021/12/27 07:48:20;;;;;;;46.30;29.83;;;;;;;3.34;100.00;99930.88;5006038;28;20494;-58
2021/12/27 07:50:46;;;;;;;48.23;31.57;;;;;;;3.33;100.00;99928.22;5001528;28;20032;-58
2021/12/27 07:53:11;;;;;;;46.00;29.63;;;;;;;3.32;100.00;99932.47;5003570;28;20622;-58
2021/12/27 07:55:36;;;;;;;50.23;29.30;;;;;;;3.31;100.00;99935.81;4999455;28;20030;-57
2021/12/27 07:58:02;;;;;;;50.20;30.90;;;;;;;3.30;100.00;99931.53;5004959;28;20115;-59
2021/12/27 08:00:29;;;;;;;47.87;29.67;;;;;;;3.29;100.00;99940.00;5001501;28;20105;-60
2021/12/27 08:02:54;;;;;;;48.97;29.57;;;;;;;3.29;100.00;99937.44;4999610;28;20026;-58
2021/12/27 08:05:20;;;;;;;47.60;29.13;;;;;;;3.29;100.00;99934.88;5000695;28;20045;-57
2021/12/27 08:07:45;;;;;;;46.80;29.33;;;;;;;3.29;100.00;99942.56;5004899;28;20117;-58
2021/12/27 08:10:13;;;;;;;46.33;30.03;;;;;;;3.30;100.00;99943.44;5004455;28;20022;-58
2021/12/27 08:12:39;;;;;;;43.83;29.13;;;;;;;3.30;100.00;99946.88;5004219;28;20026;-58
2021/12/27 08:15:06;;;;;;;46.67;28.87;;;;;;;3.28;100.00;99948.50;5001448;28;20026;-58
2021/12/27 08:17:31;;;;;;;44.23;29.40;;;;;;;3.28;100.00;99938.25;4996461;28;20634;-57
2021/12/27 08:19:57;;;;;;;47.87;28.63;;;;;;;3.29;100.00;99942.56;4994137;28;20117;-58
2021/12/27 08:22:22;;;;;;;41.77;28.13;;;;;;;3.29;100.00;99942.56;4990667;28;20033;-58
2021/12/27 08:24:48;;;;;;;45.70;29.23;;;;;;;3.31;100.00;99950.34;4991705;28;20035;-59
2021/12/27 08:27:14;;;;;;;48.37;31.13;;;;;;;3.33;100.00;99949.59;4997128;28;20041;-59
2021/12/27 08:29:39;;;;;;;49.07;29.43;;;;;;;3.35;100.00;99942.84;4989467;28;20022;-59
2021/12/27 08:32:05;;;;;;;45.67;29.83;;;;;;;3.36;100.00;99947.16;4994590;28;20101;-58
2021/12/27 08:34:31;;;;;;;44.13;30.30;;;;;;;3.40;100.00;99945.63;5003220;28;20021;-58
2021/12/27 08:36:59;;;;;;;49.10;30.50;;;;;;;3.42;100.00;99935.47;5009396;28;20030;-58
2021/12/27 08:39:24;;;;;;;49.23;30.07;;;;;;;3.45;100.00;99933.03;5008599;28;20110;-59
2021/12/27 08:41:50;;;;;;;48.10;30.83;;;;;;;3.48;100.00;99938.31;4990370;28;20109;-59
2021/12/27 08:44:15;;;;;;;46.43;31.03;;;;;;;3.50;100.00;99934.13;4990368;28;20431;-58
2021/12/27 08:46:42;;;;;;;49.00;30.17;;;;;;;3.51;100.00;99933.31;4990640;28;20158;-57
2021/12/27 08:49:08;;;;;;;42.27;27.97;;;;;;;3.54;100.00;99930.91;4990581;28;20023;-58
2021/12/27 08:51:34;;;;;;;46.10;30.00;;;;;;;3.55;100.00;99914.72;4990141;28;20554;-59
2021/12/27 08:54:00;;;;;;;46.77;29.80;;;;;;;3.54;100.00;99912.97;4990824;28;20121;-59
2021/12/27 08:56:25;;;;;;;44.53;29.83;;;;;;;3.55;100.00;99914.72;5001320;28;20401;-58
2021/12/27 08:58:50;;;;;;;43.27;29.67;;;;;;;3.55;100.00;99908.72;4997679;28;20318;-58
2021/12/27 09:01:16;;;;;;;42.07;29.87;;;;;;;3.56;100.00;99903.66;4996291;28;20445;-58
2021/12/27 09:03:41;;;;;;;40.13;27.77;;;;;;;3.60;100.00;99890.19;5004081;28;20112;-58
2021/12/27 09:06:07;;;;;;;38.70;25.53;;;;;;;3.59;100.00;99890.13;5004147;28;20083;-59
2021/12/27 09:08:32;;;;;;;38.63;26.87;;;;;;;3.65;100.00;99889.53;5004736;28;20101;-59
2021/12/27 09:10:58;;;;;;;37.13;25.43;;;;;;;3.67;100.00;99887.91;5004454;28;20037;-58
2021/12/27 09:13:28;;;;;;;37.60;26.20;;;;;;;3.72;100.00;99897.53;5004621;28;20475;-59
2021/12/27 09:15:54;;;;;;;39.40;25.23;;;;;;;3.76;100.00;99895.13;5000742;28;20037;-58
2021/12/27 09:18:19;;;;;;;36.53;24.37;;;;;;;3.78;100.00;99896.94;5003168;28;20022;-58
2021/12/27 09:20:45;;;;;;;34.93;24.03;;;;;;;3.78;100.00;99909.75;5005831;28;20121;-60
2021/12/27 09:23:10;;;;;;;34.50;23.83;;;;;;;3.79;100.00;99902.94;5004153;28;20038;-56
2021/12/27 09:25:35;;;;;;;31.67;23.07;;;;;;;3.81;100.00;99901.34;5003883;28;20038;-57
2021/12/27 09:28:01;;;;;;;30.83;23.73;;;;;;;3.87;100.00;99905.88;5003463;28;20022;-58
2021/12/27 09:30:26;;;;;;;28.23;22.57;;;;;;;3.90;100.00;99909.44;5005677;28;20513;-57
2021/12/27 09:32:53;;;;;;;29.43;20.97;;;;;;;3.88;100.00;99912.75;5005144;28;20105;-59
2021/12/27 09:35:19;;;;;;;25.80;21.33;;;;;;;3.90;100.00;99911.13;4998591;28;20026;-59
2021/12/27 09:37:44;;;;;;;28.03;22.40;;;;;;;3.93;100.00;99917.25;5009727;28;20037;-60
2021/12/27 09:40:10;;;;;;;30.97;21.70;;;;;;;3.97;100.00;99902.91;5008775;28;20478;-58
2021/12/27 09:42:36;;;;;;;26.50;20.73;;;;;;;3.97;100.00;99892.63;5011211;28;20450;-58
2021/12/27 09:45:05;;;;;;;25.23;20.67;;;;;;;4.00;100.00;99895.31;5002840;28;20030;-59
2021/12/27 09:47:32;;;;;;;26.67;20.60;;;;;;;4.05;100.00;99890.38;5010784;28;20030;-58
2021/12/27 09:49:58;;;;;;;24.43;19.50;;;;;;;4.07;100.00;99884.53;5010145;28;20077;-59
2021/12/27 09:52:23;;;;;;;24.80;18.87;;;;;;;4.12;100.00;99886.44;5009638;28;20018;-58
2021/12/27 09:54:48;;;;;;;21.23;17.63;;;;;;;4.09;100.00;99882.03;5007103;28;20373;-59
2021/12/27 09:57:14;;;;;;;22.90;18.37;;;;;;;4.11;100.00;99882.09;5007649;28;20083;-59
2021/12/27 09:59:40;;;;;;;19.90;17.57;;;;;;;4.11;100.00;99876.97;5010503;28;20026;-59
2021/12/27 10:02:05;;;;;;;23.03;18.43;;;;;;;4.14;100.00;99880.53;5008553;28;20022;-59
2021/12/27 10:04:32;;;;;;;23.00;19.40;;;;;;;4.18;100.00;99876.41;5010031;28;20038;-59
2021/12/27 10:06:57;;;;;;;20.63;17.43;;;;;;;4.21;100.00;99873.97;5006254;28;20088;-58
2021/12/27 10:09:22;;;;;;;20.00;17.67;;;;;;;4.27;100.00;99887.06;5009836;28;20022;-58
2021/12/27 10:11:48;;;;;;;19.60;17.30;;;;;;;4.30;100.00;99871.81;5009050;28;20101;-58
2021/12/27 10:14:16;;;;;;;19.37;16.97;;;;;;;4.36;100.00;99853.22;5009304;28;20378;-59
2021/12/27 10:17:08;;;;;;;19.10;17.10;;;;;;;4.40;100.00;99841.41;5006920;28;20010;-59
2021/12/27 10:19:34;;;;;;;19.67;16.83;;;;;;;4.41;100.00;99828.63;5005967;28;20053;-59
2021/12/27 10:22:00;;;;;;;19.30;17.10;;;;;;;4.36;100.00;99842.97;5005342;28;20479;-59
2021/12/27 10:24:29;;;;;;;23.43;17.87;;;;;;;4.40;100.00;99841.41;5008543;28;20018;-58
2021/12/27 10:26:57;;;;;;;21.37;19.10;;;;;;;4.42;100.00;99844.91;5015246;28;20496;-59
2021/12/27 10:29:27;;;;;;;22.65;20.25;;;;;;;4.43;100.00;99854.34;5016792;28;20014;-60
2021/12/27 10:32:18;;;;;;;23.27;19.63;;;;;;;4.44;100.00;99869.81;5021437;28;20365;-57
2021/12/27 10:34:50;;;;;;;23.97;20.43;;;;;;;4.48;100.00;99865.69;5022122;28;20083;-59
2021/12/27 10:37:25;;;;;;;22.33;19.93;;;;;;;4.52;100.00;99862.44;5019207;28;20053;-60
2021/12/27 10:40:03;;;;;;;26.47;22.07;;;;;;;4.59;100.00;99849.88;5011585;28;20065;-58
2021/12/27 10:42:47;;;;;;;24.03;21.57;;;;;;;4.64;100.00;99840.66;4999170;28;20573;-59
2021/12/27 10:45:19;;;;;;;24.93;21.97;;;;;;;4.71;100.00;99863.19;4996953;28;20032;-59
2021/12/27 10:47:50;;;;;;;25.60;22.87;;;;;;;4.77;100.00;99845.47;4998143;28;20050;-59
2021/12/27 10:50:35;;;;;;;28.00;24.25;;;;;;;4.86;100.00;99841.50;4994944;28;20018;-59
2021/12/27 10:53:02;;;;;;;28.88;22.65;;;;;;;4.94;100.00;99845.25;4991260;28;20046;-60
2021/12/27 10:55:31;;;;;;;25.83;23.10;;;;;;;4.99;100.00;99838.59;5001283;28;20026;-59
2021/12/27 10:58:15;;;;;;;23.13;20.75;;;;;;;5.05;100.00;99846.53;5004592;28;20026;-59
2021/12/27 11:00:42;;;;;;;21.33;19.07;;;;;;;5.08;100.00;99837.19;4999014;28;20038;-59
2021/12/27 11:03:25;;;;;;;23.30;20.77;;;;;;;5.12;100.00;99829.69;5004375;28;20175;-59
2021/12/27 11:05:51;;;;;;;23.48;21.08;;;;;;;5.18;100.00;99830.72;5010368;28;20105;-59
2021/12/27 11:08:16;;;;;;;22.70;20.23;;;;;;;5.20;100.00;99829.94;5010511;28;20096;-58
2021/12/27 11:10:42;;;;;;;21.05;18.85;;;;;;;5.21;100.00;99829.16;5002360;28;20041;-59
2021/12/27 11:13:07;;;;;;;20.65;18.45;;;;;;;5.24;100.00;99834.41;4991627;28;20090;-58
2021/12/27 11:15:36;;;;;;;20.55;18.50;;;;;;;5.27;100.00;99839.66;4996944;28;20038;-58
2021/12/27 11:18:01;;;;;;;20.92;18.27;;;;;;;5.33;100.00;99838.13;4992678;28;20070;-59